sensor_id;sensor_type;location;lat;lon;timestamp;pressure;altitude;pressure_sealevel;temperature;humidity
47636;BME280;33364;50.766;15.338;2022-12-01T00:01:11;95550.78;;;1.22;99.02
47636;BME280;33364;50.766;15.338;2022-12-01T00:03:37;95550.78;;;1.22;99.39
47636;BME280;33364;50.766;15.338;2022-12-01T00:06:21;95549.97;;;1.21;99.35
47636;BME280;33364;50.766;15.338;2022-12-01T00:08:50;95542.31;;;1.21;99.50
47636;BME280;33364;50.766;15.338;2022-12-01T00:11:35;95539.69;;;1.23;99.42
47636;BME280;33364;50.766;15.338;2022-12-01T00:14:01;95538.75;;;1.25;99.56
47636;BME280;33364;50.766;15.338;2022-12-01T00:16:27;95534.59;;;1.23;99.58
47636;BME280;33364;50.766;15.338;2022-12-01T00:18:53;95537.91;;;1.25;99.74
47636;BME280;33364;50.766;15.338;2022-12-01T00:21:21;95531.97;;;1.24;99.27
47636;BME280;33364;50.766;15.338;2022-12-01T00:23:49;95524.31;;;1.26;99.43
47636;BME280;33364;50.766;15.338;2022-12-01T00:26:16;95530.25;;;1.25;99.30
47636;BME280;33364;50.766;15.338;2022-12-01T00:28:42;95525.97;;;1.27;98.99
47636;BME280;33364;50.766;15.338;2022-12-01T00:31:11;95516.66;;;1.26;98.95
47636;BME280;33364;50.766;15.338;2022-12-01T00:33:38;95521.22;;;1.16;98.88
47636;BME280;33364;50.766;15.338;2022-12-01T00:36:04;95513.69;;;1.13;99.25
47636;BME280;33364;50.766;15.338;2022-12-01T00:38:31;95512.91;;;1.11;98.98
47636;BME280;33364;50.766;15.338;2022-12-01T00:40:57;95513.06;;;1.07;99.24
47636;BME280;33364;50.766;15.338;2022-12-01T00:43:22;95513.97;;;1.06;98.90
47636;BME280;33364;50.766;15.338;2022-12-01T00:45:49;95520.97;;;0.99;98.85
47636;BME280;33364;50.766;15.338;2022-12-01T00:48:15;95514.34;;;0.93;98.88
47636;BME280;33364;50.766;15.338;2022-12-01T00:50:41;95517.22;;;0.84;98.96
47636;BME280;33364;50.766;15.338;2022-12-01T00:53:07;95520.72;;;0.80;98.93
47636;BME280;33364;50.766;15.338;2022-12-01T00:55:33;95515.81;;;0.75;98.94
47636;BME280;33364;50.766;15.338;2022-12-01T00:57:58;95515.13;;;0.70;99.14
47636;BME280;33364;50.766;15.338;2022-12-01T01:00:24;95509.38;;;0.64;98.52
47636;BME280;33364;50.766;15.338;2022-12-01T01:02:50;95513.72;;;0.62;98.72
47636;BME280;33364;50.766;15.338;2022-12-01T01:05:16;95510.38;;;0.60;99.22
47636;BME280;33364;50.766;15.338;2022-12-01T01:07:42;95515.47;;;0.60;98.42
47636;BME280;33364;50.766;15.338;2022-12-01T01:10:08;95508.09;;;0.52;99.04
47636;BME280;33364;50.766;15.338;2022-12-01T01:12:34;95507.28;;;0.50;99.26
47636;BME280;33364;50.766;15.338;2022-12-01T01:14:59;95512.44;;;0.48;99.25
47636;BME280;33364;50.766;15.338;2022-12-01T01:17:25;95503.13;;;0.47;99.08
47636;BME280;33364;50.766;15.338;2022-12-01T01:19:52;95508.31;;;0.44;98.99
47636;BME280;33364;50.766;15.338;2022-12-01T01:22:18;95508.44;;;0.41;98.94
47636;BME280;33364;50.766;15.338;2022-12-01T01:24:45;95505.19;;;0.36;99.34
47636;BME280;33364;50.766;15.338;2022-12-01T01:27:10;95508.78;;;0.29;99.35
47636;BME280;33364;50.766;15.338;2022-12-01T01:29:36;95500.25;;;0.32;99.62
47636;BME280;33364;50.766;15.338;2022-12-01T01:32:02;95499.31;;;0.34;99.71
47636;BME280;33364;50.766;15.338;2022-12-01T01:34:28;95501.06;;;0.32;99.96
47636;BME280;33364;50.766;15.338;2022-12-01T01:36:56;95504.44;;;0.33;99.16
47636;BME280;33364;50.766;15.338;2022-12-01T01:39:22;95502.88;;;0.29;99.29
47636;BME280;33364;50.766;15.338;2022-12-01T01:41:48;95502.25;;;0.22;99.18
47636;BME280;33364;50.766;15.338;2022-12-01T01:44:41;95498.94;;;0.18;99.24
47636;BME280;33364;50.766;15.338;2022-12-01T01:47:11;95490.50;;;0.18;99.60
47636;BME280;33364;50.766;15.338;2022-12-01T01:49:38;95499.06;;;0.15;99.13
47636;BME280;33364;50.766;15.338;2022-12-01T01:52:05;95490.88;;;0.06;98.77
47636;BME280;33364;50.766;15.338;2022-12-01T01:54:34;95483.28;;;0.04;99.51
47636;BME280;33364;50.766;15.338;2022-12-01T01:57:03;95490.81;;;0.07;99.72
47636;BME280;33364;50.766;15.338;2022-12-01T01:59:33;95488.91;;;0.14;99.74
47636;BME280;33364;50.766;15.338;2022-12-01T02:02:04;95479.69;;;0.11;99.11
47636;BME280;33364;50.766;15.338;2022-12-01T02:04:38;95478.00;;;0.10;99.25
47636;BME280;33364;50.766;15.338;2022-12-01T02:07:06;95477.06;;;0.13;99.34
47636;BME280;33364;50.766;15.338;2022-12-01T02:09:32;95481.94;;;0.20;99.54
47636;BME280;33364;50.766;15.338;2022-12-01T02:12:23;95477.06;;;0.13;98.47
47636;BME280;33364;50.766;15.338;2022-12-01T02:17:55;95483.31;;;0.03;99.42
47636;BME280;33364;50.766;15.338;2022-12-01T02:26:41;95482.81;;;-0.09;98.66
47636;BME280;33364;50.766;15.338;2022-12-01T02:32:14;95491.28;;;-0.08;99.16
47636;BME280;33364;50.766;15.338;2022-12-01T02:34:47;95493.88;;;-0.10;98.91
47636;BME280;33364;50.766;15.338;2022-12-01T02:43:15;95489.25;;;-0.25;99.07
47636;BME280;33364;50.766;15.338;2022-12-01T02:46:11;95490.94;;;-0.26;98.92
47636;BME280;33364;50.766;15.338;2022-12-01T02:48:44;95487.53;;;-0.24;99.51
47636;BME280;33364;50.766;15.338;2022-12-01T02:51:16;95482.59;;;-0.29;99.50
47636;BME280;33364;50.766;15.338;2022-12-01T02:53:43;95490.13;;;-0.26;99.28
47636;BME280;33364;50.766;15.338;2022-12-01T02:56:11;95483.09;;;-0.18;99.79
47636;BME280;33364;50.766;15.338;2022-12-01T02:58:37;95484.06;;;-0.22;99.49
47636;BME280;33364;50.766;15.338;2022-12-01T03:07:04;95494.50;;;-0.31;99.48
47636;BME280;33364;50.766;15.338;2022-12-01T03:10:21;95486.97;;;-0.34;100.00
47636;BME280;33364;50.766;15.338;2022-12-01T03:15:27;95486.41;;;-0.16;100.00
47636;BME280;33364;50.766;15.338;2022-12-01T03:20:34;95480.16;;;-0.04;100.00
47636;BME280;33364;50.766;15.338;2022-12-01T03:23:12;95485.03;;;0.02;100.00
47636;BME280;33364;50.766;15.338;2022-12-01T03:25:40;95479.91;;;0.04;100.00
47636;BME280;33364;50.766;15.338;2022-12-01T03:28:11;95484.28;;;0.00;100.00
47636;BME280;33364;50.766;15.338;2022-12-01T03:30:38;95479.91;;;0.04;100.00
47636;BME280;33364;50.766;15.338;2022-12-01T03:33:15;95487.34;;;0.10;100.00
47636;BME280;33364;50.766;15.338;2022-12-01T03:35:50;95481.13;;;0.18;100.00
47636;BME280;33364;50.766;15.338;2022-12-01T03:38:28;95487.53;;;0.30;100.00
47636;BME280;33364;50.766;15.338;2022-12-01T03:41:00;95475.41;;;0.38;100.00
47636;BME280;33364;50.766;15.338;2022-12-01T03:43:32;95480.75;;;0.31;99.90
47636;BME280;33364;50.766;15.338;2022-12-01T03:46:02;95479.97;;;0.29;100.00
47636;BME280;33364;50.766;15.338;2022-12-01T03:48:31;95474.81;;;0.30;100.00
47636;BME280;33364;50.766;15.338;2022-12-01T03:53:49;95489.03;;;0.37;100.00
47636;BME280;33364;50.766;15.338;2022-12-01T03:56:19;95489.91;;;0.36;100.00
47636;BME280;33364;50.766;15.338;2022-12-01T03:58:47;95480.44;;;0.40;100.00
47636;BME280;33364;50.766;15.338;2022-12-01T04:01:14;95489.50;;;0.48;100.00
47636;BME280;33364;50.766;15.338;2022-12-01T04:03:40;95488.75;;;0.46;100.00
47636;BME280;33364;50.766;15.338;2022-12-01T04:06:06;95485.44;;;0.43;100.00
47636;BME280;33364;50.766;15.338;2022-12-01T04:08:32;95487.66;;;0.54;100.00
47636;BME280;33364;50.766;15.338;2022-12-01T04:11:01;95490.34;;;0.49;100.00
47636;BME280;33364;50.766;15.338;2022-12-01T04:13:46;95487.66;;;0.54;100.00
47636;BME280;33364;50.766;15.338;2022-12-01T04:16:12;95486.81;;;0.53;100.00
47636;BME280;33364;50.766;15.338;2022-12-01T04:18:37;95479.19;;;0.53;100.00
47636;BME280;33364;50.766;15.338;2022-12-01T04:21:03;95479.94;;;0.55;100.00
47636;BME280;33364;50.766;15.338;2022-12-01T04:23:29;95481.53;;;0.59;100.00
47636;BME280;33364;50.766;15.338;2022-12-01T04:26:13;95475.59;;;0.59;100.00
47636;BME280;33364;50.766;15.338;2022-12-01T04:28:39;95473.94;;;0.58;100.00
47636;BME280;33364;50.766;15.338;2022-12-01T04:31:05;95467.88;;;0.60;100.00
47636;BME280;33364;50.766;15.338;2022-12-01T04:33:30;95467.81;;;0.63;100.00
47636;BME280;33364;50.766;15.338;2022-12-01T04:36:00;95461.78;;;0.66;100.00
47636;BME280;33364;50.766;15.338;2022-12-01T04:38:26;95465.09;;;0.68;100.00
47636;BME280;33364;50.766;15.338;2022-12-01T04:40:51;95458.28;;;0.68;100.00
47636;BME280;33364;50.766;15.338;2022-12-01T04:43:17;95456.47;;;0.72;100.00
47636;BME280;33364;50.766;15.338;2022-12-01T04:45:43;95465.78;;;0.73;100.00
47636;BME280;33364;50.766;15.338;2022-12-01T04:48:09;95464.88;;;0.74;100.00
47636;BME280;33364;50.766;15.338;2022-12-01T04:50:34;95469.38;;;0.67;100.00
47636;BME280;33364;50.766;15.338;2022-12-01T04:53:00;95470.19;;;0.68;100.00
47636;BME280;33364;50.766;15.338;2022-12-01T04:55:26;95475.28;;;0.68;100.00
47636;BME280;33364;50.766;15.338;2022-12-01T04:57:51;95473.63;;;0.67;100.00
47636;BME280;33364;50.766;15.338;2022-12-01T05:00:17;95468.63;;;0.64;100.00
47636;BME280;33364;50.766;15.338;2022-12-01T05:02:43;95471.25;;;0.62;100.00
47636;BME280;33364;50.766;15.338;2022-12-01T05:05:10;95478.81;;;0.64;100.00
47636;BME280;33364;50.766;15.338;2022-12-01T05:07:36;95468.75;;;0.61;100.00
47636;BME280;33364;50.766;15.338;2022-12-01T05:10:02;95476.41;;;0.61;100.00
47636;BME280;33364;50.766;15.338;2022-12-01T05:12:29;95466.16;;;0.62;100.00
47636;BME280;33364;50.766;15.338;2022-12-01T05:14:54;95476.41;;;0.61;100.00
47636;BME280;33364;50.766;15.338;2022-12-01T05:17:20;95467.94;;;0.59;100.00
47636;BME280;33364;50.766;15.338;2022-12-01T05:19:45;95469.81;;;0.54;100.00
47636;BME280;33364;50.766;15.338;2022-12-01T05:22:30;95472.47;;;0.50;100.00
47636;BME280;33364;50.766;15.338;2022-12-01T05:24:55;95470.72;;;0.52;100.00
47636;BME280;33364;50.766;15.338;2022-12-01T05:27:21;95476.63;;;0.53;100.00
47636;BME280;33364;50.766;15.338;2022-12-01T05:29:47;95466.53;;;0.50;100.00
47636;BME280;33364;50.766;15.338;2022-12-01T05:32:13;95468.31;;;0.48;100.00
47636;BME280;33364;50.766;15.338;2022-12-01T05:34:38;95469.97;;;0.49;100.00
47636;BME280;33364;50.766;15.338;2022-12-01T05:37:05;95465.91;;;0.43;100.00
47636;BME280;33364;50.766;15.338;2022-12-01T05:39:30;95473.00;;;0.34;100.00
47636;BME280;33364;50.766;15.338;2022-12-01T05:41:56;95471.41;;;0.31;100.00
47636;BME280;33364;50.766;15.338;2022-12-01T05:44:22;95475.91;;;0.23;100.00
47636;BME280;33364;50.766;15.338;2022-12-01T05:46:47;95468.41;;;0.18;100.00
47636;BME280;33364;50.766;15.338;2022-12-01T05:49:13;95467.56;;;0.18;100.00
47636;BME280;33364;50.766;15.338;2022-12-01T05:51:39;95466.81;;;0.16;100.00
47636;BME280;33364;50.766;15.338;2022-12-01T05:54:04;95467.78;;;0.12;100.00
47636;BME280;33364;50.766;15.338;2022-12-01T05:56:30;95471.22;;;0.09;100.00
47636;BME280;33364;50.766;15.338;2022-12-01T05:58:56;95471.44;;;0.03;100.00
47636;BME280;33364;50.766;15.338;2022-12-01T06:01:21;95473.16;;;0.03;100.00
47636;BME280;33364;50.766;15.338;2022-12-01T06:03:47;95478.31;;;-0.01;100.00
47636;BME280;33364;50.766;15.338;2022-12-01T06:06:13;95480.09;;;-0.03;100.00
47636;BME280;33364;50.766;15.338;2022-12-01T06:08:38;95475.06;;;-0.04;99.92
47636;BME280;33364;50.766;15.338;2022-12-01T06:11:04;95477.59;;;-0.04;100.00
47636;BME280;33364;50.766;15.338;2022-12-01T06:13:30;95476.78;;;-0.06;100.00
47636;BME280;33364;50.766;15.338;2022-12-01T06:15:59;95488.94;;;-0.14;99.91
47636;BME280;33364;50.766;15.338;2022-12-01T06:18:26;95482.97;;;-0.13;100.00
47636;BME280;33364;50.766;15.338;2022-12-01T06:20:52;95488.97;;;-0.16;100.00
47636;BME280;33364;50.766;15.338;2022-12-01T06:23:17;95488.94;;;-0.14;100.00
47636;BME280;33364;50.766;15.338;2022-12-01T06:25:43;95491.38;;;-0.11;100.00
47636;BME280;33364;50.766;15.338;2022-12-01T06:28:09;95491.22;;;-0.07;100.00
47636;BME280;33364;50.766;15.338;2022-12-01T06:30:34;95486.06;;;-0.04;100.00
47636;BME280;33364;50.766;15.338;2022-12-01T06:33:00;95484.28;;;-0.02;100.00
47636;BME280;33364;50.766;15.338;2022-12-01T06:35:26;95490.19;;;0.01;100.00
47636;BME280;33364;50.766;15.338;2022-12-01T06:37:52;95491.84;;;0.02;100.00
47636;BME280;33364;50.766;15.338;2022-12-01T06:40:19;95485.88;;;0.03;100.00
47636;BME280;33364;50.766;15.338;2022-12-01T06:42:44;95491.78;;;0.03;100.00
47636;BME280;33364;50.766;15.338;2022-12-01T06:45:10;95485.94;;;-0.01;100.00
47636;BME280;33364;50.766;15.338;2022-12-01T06:47:36;95493.56;;;0.01;100.00
47636;BME280;33364;50.766;15.338;2022-12-01T06:50:03;95490.97;;;0.03;100.00
47636;BME280;33364;50.766;15.338;2022-12-01T06:52:32;95485.72;;;0.07;100.00
47636;BME280;33364;50.766;15.338;2022-12-01T06:54:58;95484.75;;;0.11;100.00
47636;BME280;33364;50.766;15.338;2022-12-01T06:57:25;95490.78;;;0.09;100.00
47636;BME280;33364;50.766;15.338;2022-12-01T06:59:51;95492.53;;;0.07;100.00
47636;BME280;33364;50.766;15.338;2022-12-01T07:02:16;95489.19;;;0.05;100.00
47636;BME280;33364;50.766;15.338;2022-12-01T07:04:42;95496.06;;;0.03;100.00
47636;BME280;33364;50.766;15.338;2022-12-01T07:07:08;95490.97;;;0.03;100.00
47636;BME280;33364;50.766;15.338;2022-12-01T07:09:34;95496.06;;;0.03;100.00
47636;BME280;33364;50.766;15.338;2022-12-01T07:12:00;95488.34;;;0.04;100.00
47636;BME280;33364;50.766;15.338;2022-12-01T07:14:26;95490.22;;;-0.01;100.00
47636;BME280;33364;50.766;15.338;2022-12-01T07:16:52;95500.44;;;-0.03;100.00
47636;BME280;33364;50.766;15.338;2022-12-01T07:19:18;95491.16;;;-0.04;100.00
47636;BME280;33364;50.766;15.338;2022-12-01T07:21:44;95499.84;;;-0.11;99.83
47636;BME280;33364;50.766;15.338;2022-12-01T07:24:10;95501.53;;;-0.11;100.00
47636;BME280;33364;50.766;15.338;2022-12-01T07:26:37;95497.28;;;-0.11;100.00
47636;BME280;33364;50.766;15.338;2022-12-01T07:29:03;95509.16;;;-0.10;100.00
47636;BME280;33364;50.766;15.338;2022-12-01T07:31:28;95499.81;;;-0.09;100.00
47636;BME280;33364;50.766;15.338;2022-12-01T07:33:54;95499.06;;;-0.13;100.00
47636;BME280;33364;50.766;15.338;2022-12-01T07:36:20;95504.06;;;-0.10;100.00
47636;BME280;33364;50.766;15.338;2022-12-01T07:38:46;95499.88;;;-0.12;100.00
47636;BME280;33364;50.766;15.338;2022-12-01T07:41:13;95492.13;;;-0.08;100.00
47636;BME280;33364;50.766;15.338;2022-12-01T07:43:39;95497.06;;;-0.03;100.00
47636;BME280;33364;50.766;15.338;2022-12-01T07:46:15;95498.59;;;0.03;100.00
47636;BME280;33364;50.766;15.338;2022-12-01T07:48:41;95499.53;;;0.00;100.00
47636;BME280;33364;50.766;15.338;2022-12-01T07:51:08;95502.81;;;0.04;100.00
47636;BME280;33364;50.766;15.338;2022-12-01T07:53:35;95502.91;;;0.01;100.00
47636;BME280;33364;50.766;15.338;2022-12-01T07:56:01;95493.50;;;0.03;100.00
47636;BME280;33364;50.766;15.338;2022-12-01T07:58:29;95498.47;;;0.07;100.00
47636;BME280;33364;50.766;15.338;2022-12-01T08:00:55;95493.38;;;0.07;100.00
47636;BME280;33364;50.766;15.338;2022-12-01T08:03:21;95496.00;;;0.04;100.00
47636;BME280;33364;50.766;15.338;2022-12-01T08:05:59;95495.84;;;0.10;100.00
47636;BME280;33364;50.766;15.338;2022-12-01T08:08:25;95495.78;;;0.12;100.00
47636;BME280;33364;50.766;15.338;2022-12-01T08:10:51;95501.63;;;0.15;100.00
47636;BME280;33364;50.766;15.338;2022-12-01T08:13:18;95494.75;;;0.17;100.00
47636;BME280;33364;50.766;15.338;2022-12-01T08:15:44;95497.16;;;0.22;100.00
47636;BME280;33364;50.766;15.338;2022-12-01T08:18:10;95502.31;;;0.20;100.00
47636;BME280;33364;50.766;15.338;2022-12-01T08:20:36;95506.44;;;0.23;100.00
47636;BME280;33364;50.766;15.338;2022-12-01T08:23:02;95505.38;;;0.30;100.00
47636;BME280;33364;50.766;15.338;2022-12-01T08:25:29;95506.78;;;0.39;100.00
47636;BME280;33364;50.766;15.338;2022-12-01T08:27:55;95508.56;;;0.37;99.76
47636;BME280;33364;50.766;15.338;2022-12-01T08:30:21;95509.94;;;0.47;100.00
47636;BME280;33364;50.766;15.338;2022-12-01T08:32:47;95507.19;;;0.53;100.00
47636;BME280;33364;50.766;15.338;2022-12-01T08:35:13;95509.53;;;0.59;99.68
47636;BME280;33364;50.766;15.338;2022-12-01T08:37:39;95509.53;;;0.59;100.00
47636;BME280;33364;50.766;15.338;2022-12-01T08:40:05;95512.75;;;0.64;99.97
47636;BME280;33364;50.766;15.338;2022-12-01T08:42:31;95517.84;;;0.64;99.46
47636;BME280;33364;50.766;15.338;2022-12-01T08:44:57;95520.31;;;0.67;99.36
47636;BME280;33364;50.766;15.338;2022-12-01T08:47:23;95520.22;;;0.70;99.86
47636;BME280;33364;50.766;15.338;2022-12-01T08:49:48;95520.06;;;0.75;99.44
47636;BME280;33364;50.766;15.338;2022-12-01T08:52:14;95527.75;;;0.73;98.86
47636;BME280;33364;50.766;15.338;2022-12-01T08:54:40;95526.94;;;0.73;99.24
47636;BME280;33364;50.766;15.338;2022-12-01T08:57:06;95534.72;;;0.68;98.50
47636;BME280;33364;50.766;15.338;2022-12-01T08:59:31;95530.50;;;0.67;99.39
47636;BME280;33364;50.766;15.338;2022-12-01T09:01:57;95532.84;;;0.73;99.33
47636;BME280;33364;50.766;15.338;2022-12-01T09:04:24;95531.88;;;0.77;99.37
47636;BME280;33364;50.766;15.338;2022-12-01T09:06:51;95533.31;;;0.85;99.13
47636;BME280;33364;50.766;15.338;2022-12-01T09:09:23;95533.16;;;0.91;98.60
47636;BME280;33364;50.766;15.338;2022-12-01T09:11:50;95533.75;;;0.97;98.65
47636;BME280;33364;50.766;15.338;2022-12-01T09:14:18;95536.16;;;1.02;98.34
47636;BME280;33364;50.766;15.338;2022-12-01T09:16:46;95535.34;;;1.01;98.06
47636;BME280;33364;50.766;15.338;2022-12-01T09:19:15;95541.19;;;1.03;97.55
47636;BME280;33364;50.766;15.338;2022-12-01T09:21:41;95541.25;;;1.02;97.30
47636;BME280;33364;50.766;15.338;2022-12-01T09:24:11;95534.00;;;0.90;96.58
47636;BME280;33364;50.766;15.338;2022-12-01T09:26:37;95545.16;;;0.87;96.10
47636;BME280;33364;50.766;15.338;2022-12-01T09:29:05;95531.59;;;0.85;96.71
47636;BME280;33364;50.766;15.338;2022-12-01T09:31:32;95540.97;;;0.85;96.57
47636;BME280;33364;50.766;15.338;2022-12-01T09:34:00;95538.19;;;0.92;96.83
47636;BME280;33364;50.766;15.338;2022-12-01T09:36:27;95532.09;;;0.96;96.22
47636;BME280;33364;50.766;15.338;2022-12-01T09:38:53;95535.69;;;0.91;95.32
47636;BME280;33364;50.766;15.338;2022-12-01T09:41:23;95533.16;;;0.91;94.88
47636;BME280;33364;50.766;15.338;2022-12-01T09:46:22;95533.25;;;0.88;95.05
47636;BME280;33364;50.766;15.338;2022-12-01T09:48:51;95537.44;;;0.89;95.70
47636;BME280;33364;50.766;15.338;2022-12-01T09:51:24;95538.94;;;0.94;95.35
47636;BME280;33364;50.766;15.338;2022-12-01T09:53:56;95538.94;;;0.94;94.95
47636;BME280;33364;50.766;15.338;2022-12-01T09:56:25;95547.44;;;0.95;95.37
47636;BME280;33364;50.766;15.338;2022-12-01T09:58:53;95541.41;;;0.97;95.19
47636;BME280;33364;50.766;15.338;2022-12-01T10:01:30;95541.47;;;0.96;94.54
47636;BME280;33364;50.766;15.338;2022-12-01T10:03:59;95529.81;;;0.89;94.93
47636;BME280;33364;50.766;15.338;2022-12-01T10:06:35;95531.47;;;0.90;94.96
47636;BME280;33364;50.766;15.338;2022-12-01T10:11:50;95529.59;;;0.95;94.90
47636;BME280;33364;50.766;15.338;2022-12-01T10:14:18;95531.91;;;1.02;95.31
47636;BME280;33364;50.766;15.338;2022-12-01T10:16:52;95530.75;;;1.11;95.57
47636;BME280;33364;50.766;15.338;2022-12-01T10:19:32;95527.09;;;1.18;94.88
47636;BME280;33364;50.766;15.338;2022-12-01T10:27:09;95528.53;;;1.25;94.58
47636;BME280;33364;50.766;15.338;2022-12-01T10:29:52;95529.91;;;1.36;95.05
47636;BME280;33364;50.766;15.338;2022-12-01T10:35:16;95523.47;;;1.49;94.68
47636;BME280;33364;50.766;15.338;2022-12-01T10:37:43;95520.94;;;1.49;93.70
47636;BME280;33364;50.766;15.338;2022-12-01T10:40:14;95522.59;;;1.50;93.90
47636;BME280;33364;50.766;15.338;2022-12-01T10:42:48;95516.63;;;1.51;94.07
47636;BME280;33364;50.766;15.338;2022-12-01T10:48:13;95511.88;;;1.64;93.34
47636;BME280;33364;50.766;15.338;2022-12-01T10:50:51;95506.63;;;1.68;93.21
47636;BME280;33364;50.766;15.338;2022-12-01T10:56:03;95492.72;;;1.75;93.32
47636;BME280;33364;50.766;15.338;2022-12-01T10:58:32;95494.25;;;1.81;93.33
47636;BME280;33364;50.766;15.338;2022-12-01T11:01:04;95481.50;;;1.81;92.80
47636;BME280;33364;50.766;15.338;2022-12-01T11:03:33;95484.81;;;1.83;92.73
47636;BME280;33364;50.766;15.338;2022-12-01T11:06:02;95480.28;;;1.90;93.07
47636;BME280;33364;50.766;15.338;2022-12-01T11:08:45;95481.75;;;1.97;93.09
47636;BME280;33364;50.766;15.338;2022-12-01T11:11:35;95477.22;;;2.03;92.92
47636;BME280;33364;50.766;15.338;2022-12-01T11:14:25;95472.84;;;2.07;92.68
47636;BME280;33364;50.766;15.338;2022-12-01T11:16:52;95466.66;;;2.13;92.28
47636;BME280;33364;50.766;15.338;2022-12-01T11:19:29;95458.00;;;2.17;92.63
47636;BME280;33364;50.766;15.338;2022-12-01T11:22:02;95456.09;;;2.22;93.03
47636;BME280;33364;50.766;15.338;2022-12-01T11:24:45;95453.84;;;2.34;92.93
47636;BME280;33364;50.766;15.338;2022-12-01T11:27:23;95452.75;;;2.42;92.36
47636;BME280;33364;50.766;15.338;2022-12-01T11:29:53;95449.75;;;2.52;92.54
47636;BME280;33364;50.766;15.338;2022-12-01T11:32:32;95446.03;;;2.59;92.05
47636;BME280;33364;50.766;15.338;2022-12-01T11:35:18;95446.47;;;2.69;91.79
47636;BME280;33364;50.766;15.338;2022-12-01T11:37:48;95448.66;;;2.78;91.06
47636;BME280;33364;50.766;15.338;2022-12-01T11:40:19;95447.03;;;2.76;90.53
47636;BME280;33364;50.766;15.338;2022-12-01T11:42:52;95456.53;;;2.74;89.79
47636;BME280;33364;50.766;15.338;2022-12-01T11:50:29;95455.53;;;2.56;89.70
47636;BME280;33364;50.766;15.338;2022-12-01T11:52:55;95461.50;;;2.56;89.30
47636;BME280;33364;50.766;15.338;2022-12-01T11:55:26;95464.09;;;2.55;89.91
47636;BME280;33364;50.766;15.338;2022-12-01T11:57:56;95461.09;;;2.66;89.30
47636;BME280;33364;50.766;15.338;2022-12-01T12:00:25;95455.25;;;2.84;90.99
47636;BME280;33364;50.766;15.338;2022-12-01T12:08:29;95457.31;;;3.15;87.86
47636;BME280;33364;50.766;15.338;2022-12-01T12:13:50;95454.50;;;3.21;88.75
47636;BME280;33364;50.766;15.338;2022-12-01T12:25:17;95458.69;;;3.03;87.53
47636;BME280;33364;50.766;15.338;2022-12-01T12:39:14;95449.75;;;2.93;87.59
47636;BME280;33364;50.766;15.338;2022-12-01T12:41:45;95436.31;;;2.88;87.62
47636;BME280;33364;50.766;15.338;2022-12-01T12:52:35;95448.56;;;3.00;87.58
47636;BME280;33364;50.766;15.338;2022-12-01T12:57:46;95448.59;;;2.80;87.44
47636;BME280;33364;50.766;15.338;2022-12-01T13:00:14;95455.88;;;2.69;87.57
47636;BME280;33364;50.766;15.338;2022-12-01T13:02:52;95449.03;;;2.69;88.54
47636;BME280;33364;50.766;15.338;2022-12-01T13:05:27;95452.41;;;2.70;87.78
47636;BME280;33364;50.766;15.338;2022-12-01T13:08:07;95447.88;;;2.56;88.45
47636;BME280;33364;50.766;15.338;2022-12-01T13:10:41;95456.38;;;2.36;88.59
47636;BME280;33364;50.766;15.338;2022-12-01T13:13:16;95447.31;;;2.07;88.86
47636;BME280;33364;50.766;15.338;2022-12-01T13:15:47;95446.59;;;2.03;90.03
47636;BME280;33364;50.766;15.338;2022-12-01T13:21:01;95446.94;;;1.94;90.36
47636;BME280;33364;50.766;15.338;2022-12-01T13:23:27;95446.69;;;2.00;90.72
47636;BME280;33364;50.766;15.338;2022-12-01T13:25:55;95445.75;;;2.03;90.34
47636;BME280;33364;50.766;15.338;2022-12-01T13:28:27;95437.91;;;2.07;90.41
47636;BME280;33364;50.766;15.338;2022-12-01T13:31:09;95443.97;;;2.05;89.82
47636;BME280;33364;50.766;15.338;2022-12-01T13:33:36;95448.41;;;2.00;90.50
47636;BME280;33364;50.766;15.338;2022-12-01T13:36:09;95446.81;;;1.97;90.29
47636;BME280;33364;50.766;15.338;2022-12-01T13:38:36;95439.75;;;1.82;90.16
47636;BME280;33364;50.766;15.338;2022-12-01T13:49:02;95443.91;;;1.63;92.17
47636;BME280;33364;50.766;15.338;2022-12-01T13:54:34;95447.16;;;1.66;91.54
47636;BME280;33364;50.766;15.338;2022-12-01T13:57:10;95440.28;;;1.68;92.02
47636;BME280;33364;50.766;15.338;2022-12-01T14:02:31;95435.25;;;1.67;91.94
47636;BME280;33364;50.766;15.338;2022-12-01T14:08:33;95432.28;;;1.77;91.40
47636;BME280;33364;50.766;15.338;2022-12-01T14:11:19;95427.09;;;1.79;91.36
47636;BME280;33364;50.766;15.338;2022-12-01T14:16:15;95430.19;;;1.65;91.26
47636;BME280;33364;50.766;15.338;2022-12-01T14:18:47;95427.94;;;1.58;91.18
47636;BME280;33364;50.766;15.338;2022-12-01T14:21:13;95427.13;;;1.55;92.26
47636;BME280;33364;50.766;15.338;2022-12-01T14:23:58;95431.72;;;1.47;91.94
47636;BME280;33364;50.766;15.338;2022-12-01T14:26:26;95425.06;;;1.43;92.73
47636;BME280;33364;50.766;15.338;2022-12-01T14:31:23;95413.31;;;1.39;92.71
47636;BME280;33364;50.766;15.338;2022-12-01T14:33:58;95414.28;;;1.35;92.12
47636;BME280;33364;50.766;15.338;2022-12-01T14:41:49;95419.41;;;1.12;92.89
47636;BME280;33364;50.766;15.338;2022-12-01T14:44:27;95423.84;;;1.07;93.39
47636;BME280;33364;50.766;15.338;2022-12-01T14:46:59;95426.41;;;1.07;93.46
47636;BME280;33364;50.766;15.338;2022-12-01T14:49:37;95431.53;;;1.05;93.86
47636;BME280;33364;50.766;15.338;2022-12-01T14:52:06;95433.22;;;1.06;93.83
47636;BME280;33364;50.766;15.338;2022-12-01T14:54:43;95426.66;;;0.99;93.52
47636;BME280;33364;50.766;15.338;2022-12-01T14:57:12;95436.97;;;0.96;93.77
47636;BME280;33364;50.766;15.338;2022-12-01T14:59:39;95437.28;;;0.87;94.11
47636;BME280;33364;50.766;15.338;2022-12-01T15:02:05;95442.53;;;0.82;94.49
47636;BME280;33364;50.766;15.338;2022-12-01T15:05:11;95438.38;;;0.80;94.13
47636;BME280;33364;50.766;15.338;2022-12-01T15:07:39;95438.59;;;0.73;94.38
47636;BME280;33364;50.766;15.338;2022-12-01T15:10:21;95434.53;;;0.68;95.01
47636;BME280;33364;50.766;15.338;2022-12-01T15:12:48;95439.69;;;0.66;94.82